Time;durP1;ratioP1;P1;durP2;ratioP2;P2;SDS_P1;SDS_P2;PMS_P1;PMS_P2;Temp;Humidity;BMP_temperature;BMP_pressure;BME280_temperature;BME280_humidity;BME280_pressure;Samples;Min_cycle;Max_cycle;Signal;HPM_P1;HPM_P2
2020/12/07 00:00:41;;;;;;;5.73;4.67;;;7.10;75.80;;;;;;4998218;28;20447;-76
2020/12/07 00:03:08;;;;;;;4.00;3.67;;;7.20;75.60;;;;;;4998641;28;20464;-76
2020/12/07 00:05:36;;;;;;;6.03;5.23;;;7.20;75.60;;;;;;5006768;28;20479;-75
2020/12/07 00:08:03;;;;;;;6.30;4.43;;;7.20;75.90;;;;;;5013253;28;20796;-75
2020/12/07 00:10:32;;;;;;;4.93;4.50;;;7.20;75.70;;;;;;4997023;28;20978;-76
2020/12/07 00:12:58;;;;;;;4.63;4.23;;;7.20;75.30;;;;;;5001771;28;20450;-76
2020/12/07 00:15:25;;;;;;;4.30;3.90;;;7.20;75.10;;;;;;5014364;28;21837;-76
2020/12/07 00:17:53;;;;;;;3.97;3.70;;;7.20;75.00;;;;;;4995957;28;20451;-76
2020/12/07 00:20:20;;;;;;;4.73;4.30;;;7.20;74.90;;;;;;5009097;28;20465;-76
2020/12/07 00:22:46;;;;;;;3.83;3.50;;;7.20;75.00;;;;;;5015549;28;20446;-75
2020/12/07 00:25:13;;;;;;;4.20;3.80;;;7.20;75.30;;;;;;5001339;28;20549;-76
2020/12/07 00:27:41;;;;;;;4.13;3.70;;;7.20;75.20;;;;;;5010209;28;20455;-76
2020/12/07 00:30:07;;;;;;;3.63;3.33;;;7.20;75.30;;;;;;5003232;28;20461;-76
2020/12/07 00:32:34;;;;;;;3.67;3.10;;;7.20;75.60;;;;;;5010105;28;20454;-76
2020/12/07 00:35:01;;;;;;;3.60;3.30;;;7.20;75.20;;;;;;5015249;28;20497;-76
2020/12/07 00:37:28;;;;;;;3.93;3.60;;;7.20;75.20;;;;;;5013201;28;20454;-76
2020/12/07 00:39:54;;;;;;;3.90;3.50;;;7.20;75.00;;;;;;5002915;28;20480;-76
2020/12/07 00:42:21;;;;;;;3.23;2.90;;;7.20;75.00;;;;;;4997688;28;20864;-76
2020/12/07 00:44:48;;;;;;;3.07;2.87;;;7.20;75.00;;;;;;4995432;28;20490;-76
2020/12/07 00:47:15;;;;;;;4.63;3.43;;;7.20;74.90;;;;;;4995649;28;20456;-76
2020/12/07 00:49:41;;;;;;;4.80;3.60;;;7.20;74.80;;;;;;5008675;28;20462;-76
2020/12/07 00:52:09;;;;;;;3.57;3.27;;;7.20;74.90;;;;;;5011067;28;20457;-76
2020/12/07 00:54:36;;;;;;;3.37;3.10;;;7.20;74.80;;;;;;5008121;28;20455;-76
2020/12/07 00:57:03;;;;;;;4.17;3.30;;;7.10;74.50;;;;;;4999713;28;20490;-76
2020/12/07 00:59:29;;;;;;;4.70;3.30;;;7.10;74.60;;;;;;4996350;28;20454;-77
2020/12/07 01:01:58;;;;;;;4.23;3.60;;;7.10;74.60;;;;;;5004667;28;20497;-77
2020/12/07 01:04:25;;;;;;;3.13;2.83;;;7.10;74.60;;;;;;5010860;28;20479;-76
2020/12/07 01:06:52;;;;;;;2.93;2.73;;;7.10;74.70;;;;;;5012949;28;20465;-77
2020/12/07 01:09:19;;;;;;;3.90;3.20;;;7.10;75.10;;;;;;5002133;28;20460;-77
2020/12/07 01:11:47;;;;;;;3.00;2.80;;;7.10;75.20;;;;;;4997597;28;20472;-76
2020/12/07 01:14:14;;;;;;;4.67;3.50;;;7.20;74.80;;;;;;4997194;28;20471;-76
2020/12/07 01:16:41;;;;;;;3.40;3.10;;;7.20;74.70;;;;;;4995136;28;20448;-76
2020/12/07 01:19:09;;;;;;;3.73;3.37;;;7.10;74.30;;;;;;5000965;28;20447;-77
2020/12/07 01:21:36;;;;;;;2.67;2.47;;;7.10;74.50;;;;;;5012444;28;20508;-77
2020/12/07 01:24:03;;;;;;;3.07;2.77;;;7.10;74.50;;;;;;4995229;28;20451;-76
2020/12/07 01:26:30;;;;;;;2.40;2.20;;;7.10;74.70;;;;;;4994753;28;20456;-76
2020/12/07 01:28:57;;;;;;;3.37;2.80;;;7.10;74.70;;;;;;4994849;28;20536;-76
2020/12/07 01:31:24;;;;;;;3.70;3.30;;;7.00;74.60;;;;;;5014339;28;20460;-76
2020/12/07 01:33:51;;;;;;;2.60;2.40;;;7.00;74.70;;;;;;5009688;28;20530;-76
2020/12/07 01:36:18;;;;;;;3.20;2.90;;;7.00;74.80;;;;;;5006425;28;20468;-76
2020/12/07 01:38:45;;;;;;;3.07;2.87;;;7.10;74.80;;;;;;5014410;28;20449;-76
2020/12/07 01:41:11;;;;;;;3.20;2.97;;;7.00;74.30;;;;;;5013376;28;20471;-76
2020/12/07 01:43:38;;;;;;;3.60;3.03;;;7.10;74.50;;;;;;5013851;28;20453;-76
2020/12/07 01:46:06;;;;;;;4.03;3.67;;;7.00;74.40;;;;;;5006693;28;20488;-76
2020/12/07 01:48:34;;;;;;;3.23;3.03;;;7.00;74.10;;;;;;4995424;28;20513;-76
2020/12/07 01:51:01;;;;;;;2.83;2.63;;;7.00;74.00;;;;;;5008636;28;20461;-76
2020/12/07 01:53:28;;;;;;;4.53;3.93;;;7.00;74.20;;;;;;5002736;28;20456;-76
2020/12/07 01:55:55;;;;;;;3.17;2.97;;;6.90;74.40;;;;;;4995202;28;20541;-76
2020/12/07 01:58:22;;;;;;;3.37;3.07;;;6.90;74.20;;;;;;4996363;28;20443;-76
2020/12/07 02:00:48;;;;;;;2.77;2.57;;;6.90;74.20;;;;;;4994213;28;20484;-75
2020/12/07 02:03:15;;;;;;;3.70;3.33;;;6.90;74.30;;;;;;4998316;28;20455;-76
2020/12/07 02:05:42;;;;;;;3.63;3.33;;;6.90;74.30;;;;;;5010053;28;21025;-76
2020/12/07 02:08:13;;;;;;;3.70;3.40;;;6.90;74.30;;;;;;4997780;28;20513;-76
2020/12/07 02:10:41;;;;;;;3.37;3.07;;;6.90;74.20;;;;;;5000137;28;20557;-77
2020/12/07 02:13:07;;;;;;;3.37;3.07;;;6.90;74.40;;;;;;5006010;28;20458;-76
2020/12/07 02:15:34;;;;;;;3.73;3.40;;;6.90;74.40;;;;;;4993379;28;20826;-76
2020/12/07 02:18:01;;;;;;;4.07;3.77;;;6.90;74.40;;;;;;4994116;28;20459;-76
2020/12/07 02:20:28;;;;;;;4.20;3.80;;;6.90;74.40;;;;;;4995673;28;20453;-76
2020/12/07 02:22:55;;;;;;;4.90;3.90;;;6.90;74.60;;;;;;4994921;28;20451;-76
2020/12/07 02:25:22;;;;;;;3.00;2.80;;;6.90;74.70;;;;;;5010799;28;21006;-76
2020/12/07 02:27:49;;;;;;;3.33;3.03;;;7.00;74.80;;;;;;5012352;28;20951;-77
2020/12/07 02:30:16;;;;;;;3.33;3.07;;;7.00;74.60;;;;;;5011206;28;20493;-77
2020/12/07 02:32:44;;;;;;;3.80;3.30;;;7.00;75.30;;;;;;5012457;28;20453;-76
2020/12/07 02:35:11;;;;;;;4.03;3.27;;;7.00;74.50;;;;;;5001306;28;20455;-76
2020/12/07 02:37:40;;;;;;;4.53;3.30;;;7.00;74.30;;;;;;5012328;28;20459;-78
2020/12/07 02:40:08;;;;;;;2.80;2.60;;;7.00;74.40;;;;;;5012094;28;21160;-77
2020/12/07 02:42:35;;;;;;;3.33;2.93;;;7.00;74.60;;;;;;4994255;28;20989;-76
2020/12/07 02:45:03;;;;;;;3.17;2.87;;;7.00;74.60;;;;;;4994631;28;20490;-76
2020/12/07 02:47:29;;;;;;;3.70;2.70;;;7.00;74.50;;;;;;4994765;28;20455;-76
2020/12/07 02:49:56;;;;;;;3.10;2.90;;;6.90;74.20;;;;;;5010289;28;20554;-77
2020/12/07 02:52:26;;;;;;;3.27;3.00;;;7.00;74.40;;;;;;5001792;28;20458;-77
2020/12/07 02:54:55;;;;;;;3.80;3.50;;;7.00;74.60;;;;;;5011709;28;20460;-76
2020/12/07 02:57:22;;;;;;;3.43;3.13;;;7.00;74.40;;;;;;5011415;28;20971;-76
2020/12/07 02:59:49;;;;;;;3.60;3.13;;;6.90;74.30;;;;;;4999456;28;20983;-77
2020/12/07 03:02:16;;;;;;;2.70;2.50;;;6.90;74.50;;;;;;4994401;28;20966;-77
2020/12/07 03:04:43;;;;;;;4.00;2.90;;;6.90;74.70;;;;;;5004317;28;20506;-76
2020/12/07 03:07:09;;;;;;;3.00;2.67;;;6.90;75.00;;;;;;4999573;28;20458;-77
2020/12/07 03:09:36;;;;;;;2.77;2.57;;;6.90;75.10;;;;;;4996146;28;20452;-76
2020/12/07 03:12:03;;;;;;;3.50;3.20;;;6.90;75.00;;;;;;4995351;28;20452;-77
2020/12/07 03:14:30;;;;;;;3.20;2.70;;;6.90;75.00;;;;;;4994258;28;20492;-78
2020/12/07 03:16:57;;;;;;;3.40;2.80;;;6.90;75.10;;;;;;5008848;28;20475;-78
2020/12/07 03:19:24;;;;;;;3.70;3.40;;;6.90;75.30;;;;;;5009006;28;20459;-77
2020/12/07 03:21:50;;;;;;;3.90;2.60;;;6.90;75.60;;;;;;4997279;28;20528;-77
2020/12/07 03:24:20;;;;;;;3.00;2.70;;;6.90;75.40;;;;;;4999241;28;20448;-77
2020/12/07 03:26:47;;;;;;;3.60;3.30;;;6.90;75.50;;;;;;4998651;28;20454;-77
2020/12/07 03:29:14;;;;;;;3.20;2.97;;;6.90;75.40;;;;;;5014751;28;20945;-77
2020/12/07 03:31:41;;;;;;;2.93;2.60;;;6.90;75.40;;;;;;5012189;28;20466;-77
2020/12/07 03:34:09;;;;;;;3.20;2.90;;;7.00;75.50;;;;;;4997823;28;20455;-77
2020/12/07 03:36:35;;;;;;;3.10;2.90;;;6.90;75.40;;;;;;5013043;28;20466;-74
2020/12/07 03:39:03;;;;;;;3.17;2.90;;;6.90;75.50;;;;;;5015036;28;20460;-78
2020/12/07 03:41:29;;;;;;;2.60;2.40;;;6.90;75.50;;;;;;5016505;28;20447;-78
2020/12/07 03:43:56;;;;;;;2.70;2.50;;;7.00;75.60;;;;;;5006852;28;20975;-77
2020/12/07 03:46:23;;;;;;;2.70;2.50;;;7.00;75.50;;;;;;4999892;28;20498;-78
2020/12/07 03:48:50;;;;;;;3.33;3.03;;;6.90;75.30;;;;;;5010814;28;20958;-76
2020/12/07 03:51:16;;;;;;;3.90;3.00;;;6.90;75.60;;;;;;5016116;28;20450;-76
2020/12/07 03:53:43;;;;;;;3.13;2.53;;;6.90;75.60;;;;;;4999572;28;20969;-76
2020/12/07 03:56:10;;;;;;;3.47;3.27;;;6.80;75.80;;;;;;5007572;28;20482;-76
2020/12/07 03:58:37;;;;;;;2.90;2.70;;;6.80;75.90;;;;;;4996834;28;20459;-76
2020/12/07 04:01:05;;;;;;;3.13;2.93;;;6.80;76.30;;;;;;5005078;28;20865;-76
2020/12/07 04:03:32;;;;;;;2.67;2.47;;;6.80;76.30;;;;;;5013233;28;20462;-77
2020/12/07 04:06:04;;;;;;;2.87;2.40;;;6.80;76.20;;;;;;5011273;28;21022;-76
2020/12/07 04:08:30;;;;;;;2.77;2.57;;;6.80;76.40;;;;;;5006314;28;20489;-77
2020/12/07 04:10:57;;;;;;;2.80;2.60;;;6.80;76.20;;;;;;5001771;28;20955;-77
2020/12/07 04:13:24;;;;;;;3.00;2.80;;;6.80;76.00;;;;;;5007480;28;20466;-77
2020/12/07 04:15:50;;;;;;;3.13;2.83;;;6.80;76.10;;;;;;5006387;28;20454;-75
2020/12/07 04:18:17;;;;;;;3.20;3.00;;;6.80;76.40;;;;;;5012586;28;20462;-75
2020/12/07 04:20:45;;;;;;;3.57;3.27;;;6.80;76.50;;;;;;5010105;28;20822;-77
2020/12/07 04:23:11;;;;;;;3.80;3.23;;;6.80;76.50;;;;;;5015319;28;20461;-77
2020/12/07 04:25:38;;;;;;;3.13;2.93;;;6.80;76.50;;;;;;4999481;28;21002;-77
2020/12/07 04:28:04;;;;;;;3.37;3.07;;;6.80;76.60;;;;;;4996506;28;20456;-77
2020/12/07 04:30:31;;;;;;;2.80;2.50;;;6.80;76.70;;;;;;5001718;28;20827;-77
2020/12/07 04:32:57;;;;;;;3.27;2.97;;;6.80;76.90;;;;;;5000445;28;20448;-77
2020/12/07 04:35:24;;;;;;;3.23;2.93;;;6.90;77.00;;;;;;5001707;28;20922;-78
2020/12/07 04:37:52;;;;;;;3.53;3.20;;;6.90;76.80;;;;;;5007657;28;21074;-77
2020/12/07 04:40:18;;;;;;;3.20;2.90;;;6.90;76.60;;;;;;5010310;28;20461;-77
2020/12/07 04:42:45;;;;;;;3.63;3.33;;;7.00;76.90;;;;;;5008487;28;20455;-77
2020/12/07 04:45:12;;;;;;;2.77;2.57;;;7.00;77.00;;;;;;5007017;28;20486;-76
2020/12/07 04:47:39;;;;;;;3.03;2.73;;;7.00;76.90;;;;;;5013508;28;20878;-77
2020/12/07 04:52:42;;;;;;;3.43;3.13;;;7.00;76.80;;;;;;4697828;23;20481;-77
2020/12/07 04:55:10;;;;;;;4.23;3.00;;;7.10;76.90;;;;;;5006468;28;20451;-76
2020/12/07 04:57:38;;;;;;;2.83;2.63;;;7.10;76.90;;;;;;5015059;28;20461;-75
2020/12/07 05:00:05;;;;;;;3.13;2.70;;;7.00;76.60;;;;;;5007474;28;20461;-75
2020/12/07 05:02:36;;;;;;;3.13;2.93;;;7.10;76.80;;;;;;5003886;28;20453;-77
2020/12/07 05:05:03;;;;;;;2.70;2.50;;;7.10;76.80;;;;;;5009981;28;20499;-76
2020/12/07 05:07:32;;;;;;;2.90;2.70;;;7.00;76.60;;;;;;5000300;28;20488;-77
2020/12/07 05:10:00;;;;;;;2.97;2.73;;;7.00;76.60;;;;;;5006636;28;20979;-77
2020/12/07 05:12:36;;;;;;;3.00;2.80;;;7.00;76.70;;;;;;5002143;28;20454;-77
2020/12/07 05:15:08;;;;;;;3.17;2.87;;;7.00;76.80;;;;;;5011437;28;20953;-77
2020/12/07 05:17:37;;;;;;;2.80;2.60;;;7.00;76.70;;;;;;5014082;28;20549;-77
2020/12/07 05:20:04;;;;;;;3.07;2.83;;;7.00;76.60;;;;;;5007943;28;20552;-78
2020/12/07 05:22:31;;;;;;;3.50;3.20;;;6.90;76.00;;;;;;5000519;28;20958;-77
2020/12/07 05:24:57;;;;;;;3.30;3.00;;;6.90;76.30;;;;;;5001231;28;20491;-77
2020/12/07 05:27:27;;;;;;;3.13;2.93;;;6.90;76.50;;;;;;5001407;28;20510;-76
2020/12/07 05:30:05;;;;;;;3.67;2.87;;;6.90;76.60;;;;;;5001803;28;20487;-77
2020/12/07 05:32:33;;;;;;;6.20;3.70;;;6.90;76.60;;;;;;5007607;28;20454;-76
2020/12/07 05:35:00;;;;;;;3.43;3.13;;;6.90;77.30;;;;;;4994835;28;20479;-75
2020/12/07 05:37:27;;;;;;;5.30;3.30;;;6.90;76.60;;;;;;4997589;28;20550;-76
2020/12/07 05:39:55;;;;;;;3.37;3.07;;;6.90;76.60;;;;;;5012633;28;20456;-76
2020/12/07 05:42:23;;;;;;;3.80;2.80;;;6.90;76.50;;;;;;5008317;28;20549;-76
2020/12/07 05:44:52;;;;;;;6.87;2.83;;;7.00;76.70;;;;;;4997171;28;20976;-76
2020/12/07 05:47:22;;;;;;;3.93;3.40;;;7.00;76.70;;;;;;5004656;28;20462;-76
2020/12/07 05:49:51;;;;;;;4.13;3.83;;;7.00;76.60;;;;;;4994897;28;20963;-76
2020/12/07 05:52:26;;;;;;;3.90;3.60;;;7.00;76.50;;;;;;5004092;28;20615;-76
2020/12/07 05:54:55;;;;;;;3.63;3.37;;;7.00;76.50;;;;;;5009838;28;20522;-76
2020/12/07 05:57:27;;;;;;;3.87;3.27;;;7.00;76.40;;;;;;5011656;28;20515;-75
2020/12/07 05:59:56;;;;;;;3.73;3.33;;;7.00;76.50;;;;;;5002906;28;20867;-75
2020/12/07 06:02:24;;;;;;;3.57;3.27;;;6.90;76.20;;;;;;4998930;28;20520;-76
2020/12/07 06:04:52;;;;;;;3.60;3.37;;;6.90;76.20;;;;;;5003335;28;21246;-75
2020/12/07 06:07:24;;;;;;;3.40;2.90;;;6.90;76.30;;;;;;5005345;28;20474;-75
2020/12/07 06:09:51;;;;;;;4.90;3.80;;;6.80;76.30;;;;;;4997827;28;20468;-75
2020/12/07 06:12:23;;;;;;;6.37;4.67;;;6.80;76.30;;;;;;5007758;28;20456;-75
2020/12/07 06:14:50;;;;;;;3.53;3.23;;;6.80;76.40;;;;;;5009627;28;20498;-77
2020/12/07 06:17:25;;;;;;;3.97;3.60;;;6.70;76.30;;;;;;5012485;28;20861;-75
2020/12/07 06:19:52;;;;;;;4.70;3.80;;;6.70;76.50;;;;;;5004920;28;20544;-75
2020/12/07 06:22:22;;;;;;;4.67;3.57;;;6.70;76.50;;;;;;4999439;28;20952;-78
2020/12/07 06:24:50;;;;;;;4.83;4.43;;;6.60;76.30;;;;;;4994861;28;20539;-77
2020/12/07 06:27:17;;;;;;;3.93;3.50;;;6.60;76.40;;;;;;4997367;28;21023;-78
2020/12/07 06:30:00;;;;;;;3.97;3.63;;;6.60;76.50;;;;;;4999958;28;20462;-76
2020/12/07 06:32:46;;;;;;;4.07;3.67;;;6.60;76.60;;;;;;4993755;28;20455;-76
2020/12/07 06:35:13;;;;;;;4.40;4.10;;;6.60;76.60;;;;;;5009499;28;20461;-75
2020/12/07 06:37:44;;;;;;;4.13;3.83;;;6.50;76.60;;;;;;4996263;28;20463;-77
2020/12/07 06:40:11;;;;;;;7.10;4.60;;;6.60;76.80;;;;;;4992497;28;20453;-76
2020/12/07 06:42:42;;;;;;;4.80;4.20;;;6.60;76.80;;;;;;4992330;28;20468;-77
2020/12/07 06:45:10;;;;;;;5.10;4.50;;;6.60;76.80;;;;;;4997167;28;20483;-76
2020/12/07 06:47:41;;;;;;;5.73;4.20;;;6.60;76.80;;;;;;4999133;28;20492;-76
2020/12/07 06:50:14;;;;;;;4.93;4.43;;;6.60;76.80;;;;;;4996352;28;20483;-76
2020/12/07 06:52:42;;;;;;;5.43;4.73;;;6.70;76.90;;;;;;4996683;28;20494;-76
2020/12/07 06:55:11;;;;;;;4.90;4.50;;;6.70;76.80;;;;;;5011957;28;20507;-78
2020/12/07 06:57:42;;;;;;;5.03;4.53;;;6.80;76.70;;;;;;5011188;28;20501;-75
2020/12/07 07:00:12;;;;;;;5.87;5.20;;;6.80;76.60;;;;;;5012072;28;20446;-78
2020/12/07 07:02:40;;;;;;;6.20;4.43;;;6.80;76.40;;;;;;4991435;28;20447;-77
2020/12/07 07:05:07;;;;;;;5.47;4.80;;;6.80;76.30;;;;;;5012165;28;20494;-77
2020/12/07 07:07:36;;;;;;;5.00;4.60;;;6.80;76.40;;;;;;5010434;28;20808;-77
2020/12/07 07:10:04;;;;;;;8.43;5.50;;;6.80;76.50;;;;;;5012546;28;20450;-77
2020/12/07 07:12:30;;;;;;;6.73;4.93;;;6.90;76.50;;;;;;4993516;28;20456;-77
2020/12/07 07:14:57;;;;;;;5.63;4.83;;;7.00;76.40;;;;;;4996483;28;20458;-76
2020/12/07 07:17:26;;;;;;;6.90;5.37;;;7.00;76.20;;;;;;4993382;28;20798;-77
2020/12/07 07:19:53;;;;;;;6.07;5.47;;;7.00;76.00;;;;;;5004500;28;20458;-79
2020/12/07 07:22:20;;;;;;;6.43;5.87;;;7.00;76.20;;;;;;4996031;28;20979;-77
2020/12/07 07:24:53;;;;;;;6.93;5.20;;;7.00;76.20;;;;;;4992792;28;20463;-78
2020/12/07 07:30:04;;;;;;;6.20;5.63;;;7.00;76.00;;;;;;4997790;28;20867;-80
2020/12/07 07:32:32;;;;;;;9.03;5.80;;;7.00;76.20;;;;;;5002641;28;20476;-78
2020/12/07 07:34:58;;;;;;;9.40;6.60;;;7.10;76.20;;;;;;4992568;28;21009;-78
2020/12/07 07:37:25;;;;;;;6.73;5.73;;;7.10;76.00;;;;;;4997945;28;20468;-80
2020/12/07 07:40:00;;;;;;;13.40;7.30;;;7.10;75.70;;;;;;5011104;28;20828;-79
2020/12/07 07:42:27;;;;;;;5.63;5.03;;;7.20;75.80;;;;;;5006389;28;20479;-78
2020/12/07 07:44:55;;;;;;;9.67;6.93;;;7.20;76.60;;;;;;5001938;28;20445;-78
2020/12/07 07:47:27;;;;;;;8.17;5.73;;;7.20;75.70;;;;;;5009955;28;20802;-78
2020/12/07 07:50:18;;;;;;;6.10;5.00;;;7.30;75.60;;;;;;5011448;28;20452;-79
2020/12/07 08:18:02;;;;;;;5.30;4.90;;;7.60;75.50;;;;;;5005308;28;20471;-79
2020/12/07 08:20:31;;;;;;;9.23;5.40;;;7.60;75.10;;;;;;4999314;28;20525;-79
2020/12/07 08:22:59;;;;;;;5.67;5.10;;;7.60;74.60;;;;;;5012197;28;20456;-79
2020/12/07 08:25:45;;;;;;;5.30;4.80;;;7.60;74.60;;;;;;5001029;28;21016;-79
2020/12/07 08:28:30;;;;;;;5.57;5.03;;;7.70;74.70;;;;;;4995416;28;20461;-79
2020/12/07 08:31:07;;;;;;;5.00;4.20;;;7.70;74.90;;;;;;4994755;28;20455;-78
2020/12/07 08:33:35;;;;;;;5.13;4.67;;;7.70;74.80;;;;;;5009652;28;20460;-80
2020/12/07 08:36:04;;;;;;;5.00;4.60;;;7.70;74.90;;;;;;5012170;28;20451;-80
2020/12/07 08:38:32;;;;;;;5.10;4.60;;;7.70;74.80;;;;;;4999629;28;20457;-79
2020/12/07 08:41:04;;;;;;;5.60;5.10;;;7.80;74.60;;;;;;4999802;28;20448;-81
2020/12/07 08:43:32;;;;;;;5.63;5.10;;;7.70;74.30;;;;;;4996718;28;20947;-81
2020/12/07 08:45:59;;;;;;;5.30;4.90;;;7.80;74.10;;;;;;5013281;28;20496;-81
2020/12/07 08:48:25;;;;;;;5.37;4.30;;;7.80;74.20;;;;;;5000403;28;20500;-82
2020/12/07 08:50:54;;;;;;;4.47;4.03;;;7.80;74.10;;;;;;4994982;28;20507;-81
2020/12/07 08:53:21;;;;;;;6.03;5.50;;;7.80;73.90;;;;;;5010481;28;20480;-82
2020/12/07 08:55:48;;;;;;;4.23;3.83;;;7.80;73.80;;;;;;5015124;28;20443;-82
2020/12/07 08:58:14;;;;;;;4.50;4.10;;;7.80;73.70;;;;;;5013269;28;20459;-81
2020/12/07 09:00:42;;;;;;;8.27;5.87;;;7.80;73.70;;;;;;5006924;28;20461;-81
2020/12/07 09:03:08;;;;;;;5.83;4.87;;;7.80;73.90;;;;;;4994500;28;20485;-81
2020/12/07 09:05:35;;;;;;;5.30;4.33;;;7.80;73.90;;;;;;5009734;28;20821;-78
2020/12/07 09:08:01;;;;;;;4.83;4.33;;;7.80;74.40;;;;;;5014798;28;20461;-80
2020/12/07 09:10:28;;;;;;;11.53;4.33;;;7.80;73.90;;;;;;5006185;28;20847;-80
2020/12/07 09:12:54;;;;;;;7.13;4.60;;;7.90;74.00;;;;;;5012769;28;20452;-80
2020/12/07 09:15:21;;;;;;;5.00;4.53;;;8.00;74.10;;;;;;4992643;28;20875;-81
2020/12/07 09:17:48;;;;;;;5.13;4.73;;;8.10;74.00;;;;;;4993543;28;20454;-80
2020/12/07 09:20:15;;;;;;;4.30;4.00;;;8.30;73.80;;;;;;4994462;28;20450;-80
2020/12/07 09:22:41;;;;;;;8.00;5.17;;;8.40;73.30;;;;;;5010619;28;21070;-80
2020/12/07 09:25:08;;;;;;;5.10;4.70;;;8.50;72.70;;;;;;5014532;28;20454;-80
2020/12/07 09:27:35;;;;;;;4.83;4.33;;;8.60;72.60;;;;;;5014531;28;20464;-78
2020/12/07 09:30:01;;;;;;;8.90;5.30;;;8.60;72.30;;;;;;5014534;28;20785;-79
2020/12/07 09:32:28;;;;;;;5.07;4.57;;;8.70;72.30;;;;;;5014319;28;20449;-79
2020/12/07 09:34:55;;;;;;;5.90;5.23;;;8.70;71.90;;;;;;5014363;28;20861;-78
2020/12/07 09:37:22;;;;;;;6.10;4.30;;;8.80;71.90;;;;;;5014427;28;20492;-79
2020/12/07 09:39:49;;;;;;;6.30;4.70;;;8.90;72.00;;;;;;5014342;28;20944;-80
2020/12/07 09:42:15;;;;;;;5.20;4.53;;;9.00;72.00;;;;;;5011988;28;20469;-80
2020/12/07 09:44:42;;;;;;;4.77;4.27;;;9.10;71.70;;;;;;5014436;28;20458;-80
2020/12/07 09:47:08;;;;;;;3.97;3.67;;;9.10;71.30;;;;;;5014280;28;21017;-81
2020/12/07 09:49:35;;;;;;;4.50;4.10;;;9.10;70.40;;;;;;5013957;28;20458;-81
2020/12/07 09:52:03;;;;;;;6.27;4.60;;;9.20;70.30;;;;;;5013629;28;20480;-80
2020/12/07 09:54:29;;;;;;;4.37;3.90;;;9.30;70.20;;;;;;5013971;28;20461;-79
2020/12/07 09:56:56;;;;;;;3.90;3.60;;;9.50;70.10;;;;;;5013969;28;20482;-79
2020/12/07 09:59:22;;;;;;;3.87;3.23;;;9.60;70.00;;;;;;5014315;28;20442;-79
2020/12/07 10:01:50;;;;;;;4.33;3.93;;;9.70;68.80;;;;;;5013869;28;20495;-79
2020/12/07 10:04:16;;;;;;;4.17;3.77;;;9.70;68.40;;;;;;5013885;28;20779;-80
2020/12/07 10:06:43;;;;;;;3.90;3.50;;;9.70;67.70;;;;;;5012216;28;20493;-79
2020/12/07 10:09:11;;;;;;;4.33;3.73;;;9.70;67.50;;;;;;5013412;28;20952;-80
2020/12/07 10:11:37;;;;;;;5.37;4.87;;;9.80;67.50;;;;;;5013534;28;20467;-79
2020/12/07 10:14:05;;;;;;;3.33;3.13;;;9.80;67.40;;;;;;5013800;28;20445;-79
2020/12/07 10:16:32;;;;;;;4.50;3.83;;;9.90;67.70;;;;;;5013324;28;20464;-79
2020/12/07 10:18:58;;;;;;;6.17;3.60;;;10.10;66.20;;;;;;5013324;28;20450;-80
2020/12/07 10:21:26;;;;;;;4.30;3.90;;;10.30;66.70;;;;;;5013320;28;20869;-79
2020/12/07 10:23:53;;;;;;;3.60;3.30;;;10.50;65.30;;;;;;5013693;28;20496;-80
2020/12/07 10:26:24;;;;;;;4.00;3.70;;;10.70;65.50;;;;;;5013303;28;20495;-80
2020/12/07 10:28:51;;;;;;;2.93;2.73;;;11.00;64.00;;;;;;5012766;28;20827;-80
2020/12/07 10:31:20;;;;;;;3.83;3.53;;;11.10;62.10;;;;;;5013270;28;20840;-80
2020/12/07 10:33:47;;;;;;;3.90;3.50;;;11.30;62.30;;;;;;5011597;28;20876;-80
2020/12/07 10:36:13;;;;;;;4.40;4.00;;;11.70;60.90;;;;;;5012792;28;20930;-80
2020/12/07 10:38:40;;;;;;;3.90;3.60;;;12.10;60.50;;;;;;5013137;28;20462;-80
2020/12/07 10:41:07;;;;;;;3.27;3.07;;;12.60;59.50;;;;;;5013151;28;20454;-80
2020/12/07 10:43:35;;;;;;;3.03;2.77;;;12.90;57.30;;;;;;5013266;28;20850;-80
2020/12/07 10:46:02;;;;;;;3.60;3.40;;;13.20;56.60;;;;;;5013102;28;20486;-80
2020/12/07 10:48:28;;;;;;;3.70;3.07;;;13.70;56.30;;;;;;5013065;28;20453;-80
2020/12/07 10:50:56;;;;;;;3.90;3.60;;;14.30;55.40;;;;;;5012454;28;20826;-80
2020/12/07 10:53:22;;;;;;;4.00;3.70;;;14.80;53.50;;;;;;5012851;28;20481;-80
2020/12/07 10:55:50;;;;;;;3.90;3.50;;;15.20;52.70;;;;;;5013173;28;20958;-80
2020/12/07 10:58:16;;;;;;;3.53;3.17;;;15.70;51.70;;;;;;5012939;28;20521;-81
2020/12/07 11:00:44;;;;;;;4.13;3.83;;;16.20;50.20;;;;;;5010985;28;20453;-81
2020/12/07 11:03:11;;;;;;;3.10;2.90;;;16.80;48.60;;;;;;5012248;28;20861;-80
2020/12/07 11:05:39;;;;;;;3.47;3.27;;;17.40;47.50;;;;;;5012480;28;20478;-81
2020/12/07 11:08:13;;;;;;;5.40;3.50;;;18.30;46.80;;;;;;5012617;28;20446;-80
2020/12/07 11:10:39;;;;;;;4.00;3.60;;;18.70;44.20;;;;;;5012718;28;20451;-80
2020/12/07 11:13:16;;;;;;;3.50;3.20;;;18.00;43.10;;;;;;5012680;28;20454;-81
2020/12/07 11:15:45;;;;;;;3.97;3.67;;;16.70;43.90;;;;;;5012542;28;20450;-81
2020/12/07 11:18:11;;;;;;;3.67;3.47;;;15.50;46.50;;;;;;5012169;28;20470;-80
2020/12/07 11:20:38;;;;;;;4.00;3.70;;;14.80;48.50;;;;;;5012659;28;20457;-80
2020/12/07 11:23:05;;;;;;;4.73;4.33;;;14.50;49.50;;;;;;5012736;28;20455;-80
2020/12/07 11:25:31;;;;;;;5.27;4.80;;;14.90;50.20;;;;;;5011785;28;20572;-80
2020/12/07 11:27:58;;;;;;;3.50;3.27;;;16.20;48.90;;;;;;5012067;28;20459;-79
2020/12/07 11:30:25;;;;;;;3.73;3.43;;;17.00;46.30;;;;;;5013045;28;20454;-79
2020/12/07 11:32:53;;;;;;;3.00;2.80;;;16.40;45.90;;;;;;5012833;28;20451;-79
2020/12/07 11:35:19;;;;;;;6.17;2.97;;;15.60;46.50;;;;;;5012667;28;20801;-80
2020/12/07 11:37:51;;;;;;;3.23;3.03;;;14.70;47.80;;;;;;5012723;28;20482;-80
2020/12/07 11:40:27;;;;;;;3.10;2.90;;;13.90;49.10;;;;;;5013377;28;20954;-79
2020/12/07 11:43:03;;;;;;;3.60;3.40;;;13.00;49.70;;;;;;5016410;28;20954;-80
2020/12/07 11:45:30;;;;;;;3.37;3.17;;;12.30;51.30;;;;;;5015997;28;20977;-80
2020/12/07 11:47:57;;;;;;;3.53;3.23;;;11.90;52.90;;;;;;5016060;28;20551;-80
2020/12/07 11:50:24;;;;;;;3.23;2.70;;;11.70;53.80;;;;;;5016204;28;20923;-81
2020/12/07 11:52:51;;;;;;;4.53;4.07;;;11.50;54.00;;;;;;5014442;28;20485;-80
2020/12/07 11:55:17;;;;;;;3.97;3.67;;;11.40;54.20;;;;;;5016124;28;20457;-80
2020/12/07 11:57:45;;;;;;;3.57;3.23;;;11.30;54.50;;;;;;5016066;28;20946;-81
2020/12/07 12:00:13;;;;;;;3.13;2.93;;;11.20;54.40;;;;;;5015786;28;20511;-80
2020/12/07 12:02:39;;;;;;;3.60;3.00;;;11.10;54.90;;;;;;5015757;28;20549;-80
2020/12/07 12:05:07;;;;;;;2.93;2.73;;;11.10;54.90;;;;;;5015730;28;20454;-80
2020/12/07 12:07:34;;;;;;;3.40;2.87;;;11.00;54.80;;;;;;5015688;28;20501;-80
2020/12/07 12:10:00;;;;;;;3.90;3.10;;;10.90;54.80;;;;;;5015607;28;20863;-80
2020/12/07 12:12:28;;;;;;;4.10;3.80;;;10.80;55.00;;;;;;5015589;28;20452;-80
2020/12/07 12:14:54;;;;;;;2.73;2.53;;;10.70;55.00;;;;;;5015471;28;20539;-81
2020/12/07 12:17:21;;;;;;;3.00;2.80;;;10.60;55.00;;;;;;5015438;28;20928;-80
2020/12/07 12:19:47;;;;;;;7.63;3.37;;;10.50;55.20;;;;;;5013482;28;20452;-80
2020/12/07 12:22:15;;;;;;;3.23;3.03;;;10.50;55.60;;;;;;5015218;28;20459;-80
2020/12/07 12:24:41;;;;;;;3.63;3.33;;;10.50;55.70;;;;;;5015229;28;20827;-79
2020/12/07 12:27:08;;;;;;;3.50;3.20;;;10.30;55.70;;;;;;5015209;28;20495;-79
2020/12/07 12:29:35;;;;;;;4.47;3.23;;;10.20;56.10;;;;;;5015366;28;20964;-78
2020/12/07 12:32:01;;;;;;;2.73;2.53;;;10.00;56.60;;;;;;5014936;28;20456;-79
2020/12/07 12:34:28;;;;;;;3.40;3.10;;;10.00;57.00;;;;;;5015304;28;20505;-79
2020/12/07 12:36:55;;;;;;;4.70;3.20;;;9.90;57.90;;;;;;5015362;28;20955;-79
2020/12/07 12:39:22;;;;;;;2.73;2.53;;;9.90;58.20;;;;;;5015133;28;20447;-79
2020/12/07 12:41:49;;;;;;;2.80;2.60;;;9.80;58.10;;;;;;5014508;28;20556;-79
2020/12/07 12:44:16;;;;;;;4.17;3.87;;;9.80;58.50;;;;;;5014684;28;20452;-79
2020/12/07 12:46:42;;;;;;;4.60;3.97;;;9.70;58.70;;;;;;5013612;28;20498;-79
2020/12/07 12:49:09;;;;;;;4.17;3.77;;;9.60;58.80;;;;;;5107544;23;20465;-80
2020/12/07 12:51:35;;;;;;;3.73;3.43;;;9.60;59.00;;;;;;5028954;28;20968;-80
2020/12/07 12:54:02;;;;;;;4.33;3.93;;;9.60;59.30;;;;;;5035197;28;20454;-79
2020/12/07 12:56:29;;;;;;;5.47;4.50;;;9.70;59.60;;;;;;5035261;28;20442;-80
2020/12/07 12:58:56;;;;;;;4.40;3.70;;;9.70;59.60;;;;;;5035172;28;20457;-79
2020/12/07 13:01:22;;;;;;;3.63;3.33;;;9.70;59.70;;;;;;5035125;28;20799;-80
2020/12/07 13:03:49;;;;;;;4.20;3.80;;;9.70;59.70;;;;;;5035217;28;20446;-80
2020/12/07 13:06:16;;;;;;;5.83;4.00;;;9.70;59.90;;;;;;5034804;28;20493;-80
2020/12/07 13:08:43;;;;;;;4.00;3.70;;;9.70;60.10;;;;;;5034976;28;20924;-80
2020/12/07 13:11:11;;;;;;;4.37;4.00;;;9.70;59.90;;;;;;5034853;28;20492;-80
2020/12/07 13:13:39;;;;;;;3.37;3.17;;;9.60;59.90;;;;;;5033372;28;20502;-80
2020/12/07 13:16:09;;;;;;;3.97;3.50;;;9.60;59.80;;;;;;5034662;28;20450;-80
2020/12/07 13:18:44;;;;;;;4.87;4.27;;;9.50;59.70;;;;;;5034600;28;20460;-80
2020/12/07 13:21:17;;;;;;;4.33;4.03;;;9.50;59.80;;;;;;5034263;28;20909;-79
2020/12/07 13:23:47;;;;;;;4.33;3.93;;;9.60;59.90;;;;;;5034606;28;20870;-79
2020/12/07 13:26:17;;;;;;;4.60;3.50;;;9.60;59.80;;;;;;5034388;28;20496;-78
2020/12/07 13:28:45;;;;;;;4.53;4.13;;;9.60;59.60;;;;;;5034585;28;20459;-80